createdAt,value
2017-11-13T00:00:46.418Z,99909.35
2017-11-13T00:03:14.422Z,99914.23
2017-11-13T00:05:42.013Z,99904.19
2017-11-13T00:08:09.645Z,99910.40
2017-11-13T00:10:37.338Z,99913.23
2017-11-13T00:13:04.996Z,99926.91
2017-11-13T00:15:32.640Z,99931.69
2017-11-13T00:18:00.265Z,99930.77
2017-11-13T00:20:27.982Z,99937.24
2017-11-13T00:22:55.933Z,99940.80
2017-11-13T00:25:23.542Z,99949.41
2017-11-13T00:27:51.171Z,99943.94
2017-11-13T00:30:19.125Z,99949.67
2017-11-13T00:32:47.096Z,99952.31
2017-11-13T00:35:14.728Z,99958.77
2017-11-13T00:37:42.316Z,99953.30
2017-11-13T00:40:09.935Z,99955.03
2017-11-13T00:42:37.551Z,99959.61
2017-11-13T00:45:05.212Z,99962.08
2017-11-13T00:47:32.794Z,99960.45
2017-11-13T00:50:00.436Z,99963.33
2017-11-13T00:52:28.093Z,99972.84
2017-11-13T00:54:55.967Z,99971.04
2017-11-13T00:57:23.587Z,99965.65
2017-11-13T00:59:51.180Z,99972.67
2017-11-13T01:02:18.825Z,99969.94
2017-11-13T01:04:46.452Z,99974.98
2017-11-13T01:07:14.074Z,99965.54
2017-11-13T01:09:41.723Z,99971.48
2017-11-13T01:12:09.307Z,99982.08
2017-11-13T01:14:36.942Z,99986.05
2017-11-13T01:17:04.574Z,99990.62
2017-11-13T01:19:32.180Z,99984.23
2017-11-13T01:21:59.795Z,99985.73
2017-11-13T01:24:27.385Z,99986.97
2017-11-13T01:26:54.977Z,99989.20
2017-11-13T01:29:22.604Z,99985.25
2017-11-13T01:31:50.245Z,99975.38
2017-11-13T01:34:17.873Z,99981.36
2017-11-13T01:36:45.548Z,99985.07
2017-11-13T01:39:13.197Z,99985.16
2017-11-13T01:41:40.810Z,99983.73
2017-11-13T01:44:08.427Z,99992.35
2017-11-13T01:46:36.070Z,99992.66
2017-11-13T01:49:03.667Z,99999.94
2017-11-13T01:51:31.314Z,100004.92
2017-11-13T01:53:58.971Z,100006.40
2017-11-13T01:56:26.562Z,100013.59
2017-11-13T01:58:54.251Z,100020.63
2017-11-13T02:01:21.908Z,100013.59
2017-11-13T02:03:49.490Z,100023.61
2017-11-13T02:06:17.125Z,100028.17
2017-11-13T02:08:44.734Z,100029.49
2017-11-13T02:11:12.393Z,100032.89
2017-11-13T02:13:40.009Z,100037.58
2017-11-13T02:16:07.648Z,100033.39
2017-11-13T02:18:35.584Z,100044.63
2017-11-13T02:21:03.188Z,100048.67
2017-11-13T02:23:30.830Z,100053.47
2017-11-13T02:25:58.687Z,100059.36
2017-11-13T02:28:26.277Z,100061.82
2017-11-13T02:30:53.890Z,100064.31
2017-11-13T02:33:21.518Z,100068.69
2017-11-13T02:35:49.145Z,100072.09
2017-11-13T02:38:16.740Z,100075.08
2017-11-13T02:40:44.376Z,100076.06
2017-11-13T02:43:12.322Z,100078.40
2017-11-13T02:45:39.920Z,100076.23
2017-11-13T02:48:07.554Z,100083.00
2017-11-13T02:50:35.149Z,100083.59
2017-11-13T02:53:02.750Z,100091.19
2017-11-13T02:55:30.404Z,100095.59
2017-11-13T02:57:58.017Z,100107.31
2017-11-13T03:00:25.674Z,100108.64
2017-11-13T03:02:53.274Z,100111.13
2017-11-13T03:05:21.182Z,100113.86
2017-11-13T03:07:48.817Z,100112.53
2017-11-13T03:10:16.401Z,100117.59
2017-11-13T03:12:44.034Z,100114.43
2017-11-13T03:15:11.644Z,100117.72
2017-11-13T03:17:39.261Z,100129.63
2017-11-13T03:20:07.864Z,100129.91
2017-11-13T03:22:35.458Z,100122.63
2017-11-13T03:25:03.115Z,100120.81
2017-11-13T03:27:30.974Z,100124.36
2017-11-13T03:29:58.568Z,100125.34
2017-11-13T03:32:26.210Z,100127.23
2017-11-13T03:34:54.164Z,100134.14
2017-11-13T03:37:21.799Z,100138.51
2017-11-13T03:39:49.398Z,100148.19
2017-11-13T03:42:17.254Z,100146.52
2017-11-13T03:44:44.866Z,100156.13
2017-11-13T03:47:12.786Z,100162.17
2017-11-13T03:49:40.444Z,100169.31
2017-11-13T03:52:08.045Z,100171.20
2017-11-13T03:54:35.625Z,100167.77
2017-11-13T03:57:03.255Z,100170.01
2017-11-13T03:59:30.887Z,100174.73
2017-11-13T04:01:58.517Z,100177.88
2017-11-13T04:04:26.121Z,100177.34
2017-11-13T04:06:53.989Z,100186.20
2017-11-13T04:09:21.967Z,100198.22
2017-11-13T04:11:49.574Z,100197.95
2017-11-13T04:14:17.254Z,100194.84
2017-11-13T04:16:45.155Z,100196.06
2017-11-13T04:19:13.121Z,100197.00
2017-11-13T04:21:40.755Z,100203.20
2017-11-13T04:24:08.361Z,100200.77
2017-11-13T04:26:35.992Z,100214.96
2017-11-13T04:29:03.598Z,100221.58
2017-11-13T04:31:31.197Z,100223.44
2017-11-13T04:33:58.818Z,100227.14
2017-11-13T04:36:26.441Z,100232.52
2017-11-13T04:38:54.061Z,100226.38
2017-11-13T04:41:21.650Z,100233.27
2017-11-13T04:43:49.275Z,100240.16
2017-11-13T04:46:16.907Z,100244.98
2017-11-13T04:48:44.498Z,100246.12
2017-11-13T04:51:12.135Z,100253.83
2017-11-13T04:53:39.721Z,100259.20
2017-11-13T04:56:07.306Z,100259.91
2017-11-13T04:58:34.953Z,100262.42
2017-11-13T05:01:02.546Z,100269.94
2017-11-13T05:03:30.199Z,100269.30
2017-11-13T05:05:57.801Z,100271.14
2017-11-13T05:08:25.672Z,100272.30
2017-11-13T05:10:53.305Z,100273.91
2017-11-13T05:13:20.881Z,100275.09
2017-11-13T05:15:48.866Z,100282.62
2017-11-13T05:18:16.729Z,100284.28
2017-11-13T05:20:44.601Z,100280.41
2017-11-13T05:23:12.218Z,100284.55
2017-11-13T05:25:39.822Z,100288.11
2017-11-13T05:28:07.450Z,100291.69
2017-11-13T05:30:35.047Z,100292.64
2017-11-13T05:33:02.635Z,100296.76
2017-11-13T05:35:30.283Z,100301.91
2017-11-13T05:37:57.877Z,100307.53
2017-11-13T05:40:25.511Z,100310.11
2017-11-13T05:42:53.140Z,100321.61
2017-11-13T05:45:20.734Z,100318.47
2017-11-13T05:47:48.349Z,100324.11
2017-11-13T05:50:15.955Z,100320.78
2017-11-13T05:52:43.590Z,100328.63
2017-11-13T05:55:11.215Z,100326.22
2017-11-13T05:57:38.833Z,100336.58
2017-11-13T06:00:06.458Z,100338.67
2017-11-13T06:02:34.085Z,100344.66
2017-11-13T06:05:01.825Z,100349.47
2017-11-13T06:07:29.480Z,100346.75
2017-11-13T06:09:57.349Z,100352.16
2017-11-13T06:12:24.949Z,100362.67
2017-11-13T06:14:52.568Z,100365.21
2017-11-13T06:17:20.225Z,100365.88
2017-11-13T06:19:47.881Z,100374.25
2017-11-13T06:22:15.749Z,100372.78
2017-11-13T06:24:43.355Z,100385.47
2017-11-13T06:27:10.996Z,100387.77
2017-11-13T06:29:38.871Z,100396.33
2017-11-13T06:32:06.536Z,100399.66
2017-11-13T06:34:34.399Z,100407.94
2017-11-13T06:37:02.009Z,100406.61
2017-11-13T06:39:29.660Z,100409.27
2017-11-13T06:41:57.285Z,100413.54
2017-11-13T06:44:24.912Z,100417.14
2017-11-13T06:46:52.501Z,100416.78
2017-11-13T06:49:20.110Z,100422.63
2017-11-13T06:51:47.738Z,100422.56
2017-11-13T06:54:15.372Z,100432.83
2017-11-13T06:56:43.017Z,100432.69
2017-11-13T06:59:10.662Z,100434.66
2017-11-13T07:01:38.591Z,100433.47
2017-11-13T07:04:06.254Z,100436.95
2017-11-13T07:06:34.307Z,100442.78
2017-11-13T07:09:01.939Z,100445.85
2017-11-13T07:11:29.537Z,100456.73
2017-11-13T07:13:57.143Z,100459.33
2017-11-13T07:18:58.685Z,100473.12
2017-11-13T07:21:26.352Z,100475.77
2017-11-13T07:23:53.957Z,100474.87
2017-11-13T07:26:21.549Z,100482.11
2017-11-13T07:28:49.173Z,100482.19
2017-11-13T07:31:16.778Z,100488.08
2017-11-13T07:33:44.394Z,100481.75
2017-11-13T07:36:11.993Z,100487.48
2017-11-13T07:38:39.586Z,100484.40
2017-11-13T07:41:07.307Z,100480.61
2017-11-13T07:43:34.939Z,100484.42
2017-11-13T07:46:02.596Z,100491.89
2017-11-13T07:48:30.184Z,100490.70
2017-11-13T07:50:57.822Z,100498.71
2017-11-13T07:53:25.487Z,100501.36
2017-11-13T07:55:53.090Z,100505.53
2017-11-13T07:58:20.757Z,100511.32
2017-11-13T08:00:48.363Z,100510.44
2017-11-13T08:03:15.978Z,100511.69
2017-11-13T08:05:43.669Z,100516.62
2017-11-13T08:08:11.295Z,100515.08
2017-11-13T08:10:38.963Z,100512.85
2017-11-13T08:13:06.661Z,100510.95
2017-11-13T08:15:34.244Z,100510.07
2017-11-13T08:18:01.870Z,100507.89
2017-11-13T08:20:29.485Z,100509.00
2017-11-13T08:22:57.125Z,100511.33
2017-11-13T08:25:24.746Z,100513.19
2017-11-13T08:27:52.338Z,100520.77
2017-11-13T08:30:20.061Z,100531.11
2017-11-13T08:32:47.683Z,100534.17
2017-11-13T08:35:15.334Z,100552.14
2017-11-13T08:37:42.919Z,100556.44
2017-11-13T08:40:10.550Z,100560.08
2017-11-13T08:42:38.193Z,100561.97
2017-11-13T08:45:05.789Z,100562.23
2017-11-13T08:47:33.424Z,100567.11
2017-11-13T08:50:01.006Z,100572.35
2017-11-13T08:52:28.610Z,100581.30
2017-11-13T08:54:56.286Z,100576.41
2017-11-13T08:57:23.960Z,100582.69
2017-11-13T08:59:51.606Z,100592.70
2017-11-13T09:02:19.240Z,100596.47
2017-11-13T09:04:46.850Z,100590.63
2017-11-13T09:07:14.518Z,100600.41
2017-11-13T09:09:42.154Z,100607.36
2017-11-13T09:12:09.806Z,100606.67
2017-11-13T09:14:37.406Z,100611.91
2017-11-13T09:17:05.021Z,100618.02
2017-11-13T09:19:32.941Z,100620.52
2017-11-13T09:22:00.562Z,100625.20
2017-11-13T09:24:28.195Z,100625.36
2017-11-13T09:26:55.807Z,100634.08
2017-11-13T09:29:23.397Z,100644.61
2017-11-13T09:31:51.360Z,100650.05
2017-11-13T09:34:18.947Z,100649.84
2017-11-13T09:36:46.573Z,100657.03
2017-11-13T09:39:14.181Z,100659.20
2017-11-13T09:41:41.784Z,100665.27
2017-11-13T09:44:09.426Z,100661.35
2017-11-13T09:46:37.023Z,100667.53
2017-11-13T09:49:04.655Z,100669.29
2017-11-13T09:51:32.245Z,100668.83
2017-11-13T09:53:59.850Z,100670.20
2017-11-13T09:56:27.782Z,100677.95
2017-11-13T09:58:55.387Z,100678.36
2017-11-13T10:01:23.013Z,100691.63
2017-11-13T10:03:51.393Z,100693.42
2017-11-13T10:06:18.997Z,100696.76
2017-11-13T10:08:46.622Z,100694.41
2017-11-13T10:11:14.219Z,100697.55
2017-11-13T10:13:41.875Z,100702.15
2017-11-13T10:16:09.476Z,100702.02
2017-11-13T10:18:37.073Z,100701.17
2017-11-13T10:21:04.698Z,100703.81
2017-11-13T10:23:32.305Z,100705.21
2017-11-13T10:25:59.931Z,100704.78
2017-11-13T10:28:27.538Z,100714.28
2017-11-13T10:30:55.142Z,100703.72
2017-11-13T10:33:22.782Z,100707.47
2017-11-13T10:35:50.402Z,100715.91
2017-11-13T10:38:18.039Z,100719.84
2017-11-13T10:40:45.640Z,100720.91
2017-11-13T10:43:13.251Z,100715.96
2017-11-13T10:45:40.898Z,100720.66
2017-11-13T10:48:08.506Z,100719.67
2017-11-13T10:50:36.405Z,100726.53
2017-11-13T10:53:03.992Z,100727.78
2017-11-13T10:55:31.617Z,100733.15
2017-11-13T10:57:59.273Z,100733.98
2017-11-13T11:00:26.906Z,100742.63
2017-11-13T11:02:54.596Z,100741.95
2017-11-13T11:05:22.203Z,100743.20
2017-11-13T11:07:49.798Z,100753.75
2017-11-13T11:10:17.491Z,100748.54
2017-11-13T11:12:45.098Z,100753.23
2017-11-13T11:15:23.447Z,100760.75
2017-11-13T11:17:55.000Z,100763.05
2017-11-13T11:20:24.456Z,100756.56
2017-11-13T11:23:02.013Z,100766.00
2017-11-13T11:25:29.706Z,100760.73
2017-11-13T11:27:57.372Z,100758.08
2017-11-13T11:30:40.671Z,100763.43
2017-11-13T11:33:10.824Z,100763.18
2017-11-13T11:35:41.430Z,100762.75
2017-11-13T11:38:09.046Z,100772.73
2017-11-13T11:40:40.215Z,100761.67
2017-11-13T11:43:07.881Z,100761.49
2017-11-13T11:45:35.586Z,100768.16
2017-11-13T11:48:19.021Z,100771.40
2017-11-13T11:50:46.647Z,100774.08
2017-11-13T11:53:14.281Z,100778.08
2017-11-13T11:55:45.555Z,100780.31
2017-11-13T11:58:13.379Z,100789.86
2017-11-13T12:00:41.210Z,100785.20
2017-11-13T12:03:08.852Z,100779.97
2017-11-13T12:05:36.523Z,100783.45
2017-11-13T12:08:04.137Z,100785.95
2017-11-13T12:10:31.749Z,100788.88
2017-11-13T12:12:59.410Z,100792.27
2017-11-13T12:15:27.003Z,100789.70
2017-11-13T12:17:54.654Z,100790.80
2017-11-13T12:20:22.618Z,100789.70
2017-11-13T12:22:50.210Z,100799.18
2017-11-13T12:25:17.844Z,100800.62
2017-11-13T12:27:45.792Z,100798.61
2017-11-13T12:30:13.434Z,100801.75
2017-11-13T12:32:41.038Z,100806.21
2017-11-13T12:35:08.999Z,100814.52
2017-11-13T12:37:36.634Z,100802.47
2017-11-13T12:40:04.272Z,100810.17
2017-11-13T12:42:31.915Z,100819.72
2017-11-13T12:44:59.946Z,100817.74
2017-11-13T12:47:27.549Z,100829.17
2017-11-13T12:49:55.193Z,100831.52
2017-11-13T12:52:23.029Z,100839.06
2017-11-13T12:54:56.265Z,100845.20
2017-11-13T12:57:27.342Z,100854.39
2017-11-13T12:59:55.180Z,100848.97
2017-11-13T13:02:23.788Z,100849.33
2017-11-13T13:04:53.332Z,100853.04
2017-11-13T13:07:24.407Z,100861.38
2017-11-13T13:09:54.417Z,100858.13
2017-11-13T13:12:27.850Z,100863.05
2017-11-13T13:15:02.942Z,100860.83
2017-11-13T13:17:36.723Z,100856.01
2017-11-13T13:20:08.392Z,100862.38
2017-11-13T13:22:38.129Z,100864.41
2017-11-13T13:25:08.387Z,100860.40
2017-11-13T13:27:36.024Z,100860.59
2017-11-13T13:30:05.179Z,100872.64
2017-11-13T13:32:35.479Z,100872.27
2017-11-13T13:35:09.195Z,100878.56
2017-11-13T13:37:38.262Z,100878.30
2017-11-13T13:40:07.913Z,100883.23
2017-11-13T13:42:36.870Z,100891.75
2017-11-13T13:45:07.206Z,100893.98
2017-11-13T13:47:36.602Z,100889.16
2017-11-13T13:50:05.992Z,100895.28
2017-11-13T13:52:35.671Z,100899.64
2017-11-13T13:55:09.832Z,100906.22
2017-11-13T13:57:39.114Z,100913.59
2017-11-13T14:00:11.097Z,100919.97
2017-11-13T14:02:41.943Z,100919.20
2017-11-13T14:05:10.264Z,100918.75
2017-11-13T14:07:42.966Z,100923.38
2017-11-13T14:10:10.890Z,100921.41
2017-11-13T14:12:39.546Z,100920.18
2017-11-13T14:15:15.037Z,100917.36
2017-11-13T14:17:48.154Z,100919.27
2017-11-13T14:20:16.437Z,100915.16
2017-11-13T14:22:44.419Z,100914.52
2017-11-13T14:25:13.321Z,100909.38
2017-11-13T14:27:43.661Z,100913.14
2017-11-13T14:30:12.201Z,100910.83
2017-11-13T14:32:43.260Z,100912.51
2017-11-13T14:35:19.964Z,100912.23
2017-11-13T14:37:55.280Z,100914.83
2017-11-13T14:40:26.156Z,100917.96
2017-11-13T14:42:54.112Z,100923.25
2017-11-13T14:45:27.943Z,100931.30
2017-11-13T14:48:01.696Z,100928.64
2017-11-13T14:50:30.749Z,100936.31
2017-11-13T14:53:01.318Z,100934.92
2017-11-13T14:55:30.294Z,100933.33
2017-11-13T14:58:00.741Z,100938.36
2017-11-13T15:00:34.072Z,100948.34
2017-11-13T15:03:02.442Z,100944.56
2017-11-13T15:05:33.569Z,100946.23
2017-11-13T15:08:01.883Z,100949.45
2017-11-13T15:10:30.237Z,100955.84
2017-11-13T15:12:59.849Z,100959.88
2017-11-13T15:15:30.167Z,100960.72
2017-11-13T15:17:58.658Z,100964.83
2017-11-13T15:20:30.175Z,100965.38
2017-11-13T15:22:58.354Z,100973.91
2017-11-13T15:25:32.134Z,100977.42
2017-11-13T15:28:05.551Z,100975.47
2017-11-13T15:30:42.036Z,100977.33
2017-11-13T15:33:24.360Z,100985.31
2017-11-13T15:36:02.884Z,100984.38
2017-11-13T15:38:32.728Z,100995.91
2017-11-13T15:41:06.673Z,100995.14
2017-11-13T15:43:41.832Z,101007.63
2017-11-13T15:46:14.817Z,101009.64
2017-11-13T15:48:56.186Z,101020.16
2017-11-13T15:51:25.508Z,101025.46
2017-11-13T15:53:54.001Z,101028.58
2017-11-13T15:56:23.622Z,101027.20
2017-11-13T15:58:56.390Z,101030.74
2017-11-13T16:01:26.237Z,101038.57
2017-11-13T16:03:56.329Z,101035.56
2017-11-13T16:06:27.965Z,101044.64
2017-11-13T16:09:02.447Z,101035.63
2017-11-13T16:11:34.257Z,101038.28
2017-11-13T16:14:10.429Z,101041.29
2017-11-13T16:16:39.567Z,101051.59
2017-11-13T16:19:07.604Z,101051.16
2017-11-13T16:21:37.682Z,101053.25
2017-11-13T16:24:08.784Z,101062.80
2017-11-13T16:26:36.769Z,101072.98
2017-11-13T16:29:05.475Z,101078.29
2017-11-13T16:31:40.020Z,101075.61
2017-11-13T16:34:10.566Z,101085.31
2017-11-13T16:36:43.362Z,101091.80
2017-11-13T16:39:11.715Z,101092.61
2017-11-13T16:41:39.453Z,101097.56
2017-11-13T16:44:07.358Z,101103.16
2017-11-13T16:46:36.428Z,101100.08
2017-11-13T16:49:06.812Z,101101.83
2017-11-13T16:51:34.833Z,101104.58
2017-11-13T16:54:02.793Z,101114.64
2017-11-13T16:56:30.423Z,101119.91
2017-11-13T16:59:01.012Z,101120.71
2017-11-13T17:01:30.557Z,101122.48
2017-11-13T17:03:59.452Z,101124.94
2017-11-13T17:06:27.638Z,101119.52
2017-11-13T17:08:57.603Z,101127.48
2017-11-13T17:11:28.009Z,101132.09
2017-11-13T17:13:56.218Z,101130.65
2017-11-13T17:16:24.164Z,101137.03
2017-11-13T17:18:51.830Z,101140.94
2017-11-13T17:21:19.492Z,101145.96
2017-11-13T17:23:47.473Z,101144.98
2017-11-13T17:26:15.279Z,101149.45
2017-11-13T17:28:42.891Z,101153.43
2017-11-13T17:31:10.544Z,101151.53
2017-11-13T17:33:38.235Z,101160.42
2017-11-13T17:36:05.975Z,101160.06
2017-11-13T17:38:33.700Z,101168.48
2017-11-13T17:41:01.434Z,101165.36
2017-11-13T17:43:29.163Z,101178.78
2017-11-13T17:45:56.872Z,101178.80
2017-11-13T17:48:24.810Z,101181.72
2017-11-13T17:50:53.286Z,101192.19
2017-11-13T17:53:21.380Z,101197.78
2017-11-13T17:55:49.066Z,101197.09
2017-11-13T17:58:17.156Z,101203.02
2017-11-13T18:00:44.991Z,101208.33
2017-11-13T18:03:12.663Z,101206.80
2017-11-13T18:05:40.302Z,101212.73
2017-11-13T18:08:07.977Z,101213.44
2017-11-13T18:10:35.962Z,101218.87
2017-11-13T18:13:04.111Z,101220.70
2017-11-13T18:15:31.997Z,101219.78
2017-11-13T18:17:59.636Z,101233.24
2017-11-13T18:20:28.200Z,101226.63
2017-11-13T18:22:56.481Z,101233.80
2017-11-13T18:25:24.447Z,101241.48
2017-11-13T18:27:52.102Z,101247.34
2017-11-13T18:30:19.751Z,101246.92
2017-11-13T18:32:47.451Z,101243.23
2017-11-13T18:35:15.462Z,101246.63
2017-11-13T18:37:43.101Z,101257.09
2017-11-13T18:40:10.849Z,101254.94
2017-11-13T18:42:38.492Z,101261.34
2017-11-13T18:45:06.148Z,101264.22
2017-11-13T18:47:33.847Z,101269.42
2017-11-13T18:50:01.464Z,101268.52
2017-11-13T18:52:29.280Z,101267.06
2017-11-13T18:54:56.884Z,101266.77
2017-11-13T18:57:24.483Z,101270.33
2017-11-13T18:59:52.272Z,101275.72
2017-11-13T19:02:19.911Z,101278.08
2017-11-13T19:04:48.058Z,101280.44
2017-11-13T19:07:15.695Z,101282.44
2017-11-13T19:09:43.340Z,101284.00
2017-11-13T19:12:11.563Z,101283.64
2017-11-13T19:14:39.657Z,101290.69
2017-11-13T19:17:07.666Z,101299.25
2017-11-13T19:19:36.896Z,101304.61
2017-11-13T19:22:04.698Z,101307.20
2017-11-13T19:24:32.665Z,101313.40
2017-11-13T19:27:00.277Z,101317.50
2017-11-13T19:29:27.909Z,101323.52
2017-11-13T19:31:55.536Z,101317.17
2017-11-13T19:34:23.187Z,101324.41
2017-11-13T19:36:51.104Z,101327.91
2017-11-13T19:39:18.738Z,101331.23
2017-11-13T19:41:46.402Z,101337.37
2017-11-13T19:44:14.064Z,101337.50
2017-11-13T19:46:41.690Z,101341.77
2017-11-13T19:49:09.306Z,101339.30
2017-11-13T19:51:37.573Z,101344.83
2017-11-13T19:54:05.164Z,101341.46
2017-11-13T19:56:33.214Z,101342.85
2017-11-13T19:59:00.839Z,101344.11
2017-11-13T20:01:28.442Z,101343.59
2017-11-13T20:03:56.401Z,101352.05
2017-11-13T20:06:24.586Z,101352.66
2017-11-13T20:08:52.255Z,101355.80
2017-11-13T20:11:19.910Z,101354.05
2017-11-13T20:13:47.510Z,101351.88
2017-11-13T20:16:15.757Z,101357.20
2017-11-13T20:18:43.358Z,101365.46
2017-11-13T20:21:10.958Z,101363.58
2017-11-13T20:23:38.597Z,101373.45
2017-11-13T20:26:06.293Z,101372.05
2017-11-13T20:28:33.930Z,101379.64
2017-11-13T20:31:01.572Z,101382.59
2017-11-13T20:33:29.180Z,101383.36
2017-11-13T20:35:56.807Z,101376.56
2017-11-13T20:38:24.393Z,101381.86
2017-11-13T20:40:52.026Z,101378.86
2017-11-13T20:43:21.324Z,101388.12
2017-11-13T20:45:48.918Z,101397.20
2017-11-13T20:48:16.552Z,101393.27
2017-11-13T20:50:47.463Z,101402.48
2017-11-13T20:53:16.075Z,101399.26
2017-11-13T20:55:43.742Z,101404.01
2017-11-13T20:58:11.643Z,101407.13
2017-11-13T21:00:39.289Z,101412.23
2017-11-13T21:03:06.973Z,101399.95
2017-11-13T21:05:34.645Z,101409.22
2017-11-13T21:08:02.271Z,101407.77
2017-11-13T21:10:29.886Z,101412.34
2017-11-13T21:12:57.607Z,101414.64
2017-11-13T21:15:25.268Z,101413.55
2017-11-13T21:17:53.151Z,101411.38
2017-11-13T21:20:20.755Z,101413.78
2017-11-13T21:22:48.371Z,101419.75
2017-11-13T21:25:16.006Z,101416.31
2017-11-13T21:27:43.602Z,101421.61
2017-11-13T21:30:11.271Z,101422.09
2017-11-13T21:32:38.897Z,101425.72
2017-11-13T21:35:06.514Z,101424.05
2017-11-13T21:37:34.180Z,101424.05
2017-11-13T21:40:02.664Z,101427.77
2017-11-13T21:42:30.294Z,101428.67
2017-11-13T21:44:57.883Z,101426.33
2017-11-13T21:47:25.497Z,101430.23
2017-11-13T21:49:53.123Z,101430.92
2017-11-13T21:52:20.741Z,101440.25
2017-11-13T21:54:48.415Z,101441.66
2017-11-13T21:57:16.282Z,101451.98
2017-11-13T21:59:43.928Z,101457.75
2017-11-13T22:02:11.802Z,101455.92
2017-11-13T22:04:39.398Z,101458.50
2017-11-13T22:07:07.052Z,101458.50
2017-11-13T22:09:34.646Z,101456.40
2017-11-13T22:12:02.288Z,101458.45
2017-11-13T22:14:29.938Z,101467.59
2017-11-13T22:16:57.563Z,101465.24
2017-11-13T22:19:25.189Z,101468.77
2017-11-13T22:21:53.114Z,101466.95
2017-11-13T22:24:20.701Z,101467.02
2017-11-13T22:26:48.378Z,101454.90
2017-11-13T22:29:16.329Z,101449.78
2017-11-13T22:31:43.997Z,101447.68
2017-11-13T22:34:11.618Z,101455.16
2017-11-13T22:36:39.209Z,101455.64
2017-11-13T22:39:06.829Z,101457.00
2017-11-13T22:41:34.418Z,101447.98
2017-11-13T22:44:02.131Z,101449.48
2017-11-13T22:46:29.734Z,101448.73
2017-11-13T22:48:57.346Z,101452.69
2017-11-13T22:51:24.967Z,101450.94
2017-11-13T22:53:52.565Z,101458.88
2017-11-13T22:56:20.204Z,101463.84
2017-11-13T22:58:47.801Z,101462.27
2017-11-13T23:01:15.418Z,101467.62
2017-11-13T23:03:43.036Z,101467.43
2017-11-13T23:06:10.653Z,101474.73
2017-11-13T23:08:38.290Z,101467.98
2017-11-13T23:11:05.901Z,101467.45
2017-11-13T23:13:33.505Z,101461.64
2017-11-13T23:16:01.134Z,101462.12
2017-11-13T23:18:29.060Z,101463.08
2017-11-13T23:20:56.705Z,101467.70
2017-11-13T23:23:24.610Z,101472.23
2017-11-13T23:25:52.202Z,101473.25
2017-11-13T23:28:19.836Z,101473.62
2017-11-13T23:30:47.422Z,101475.11
2017-11-13T23:33:15.045Z,101474.75
2017-11-13T23:35:42.628Z,101473.13
2017-11-13T23:38:10.277Z,101478.25
2017-11-13T23:40:37.893Z,101479.74
2017-11-13T23:43:05.478Z,101484.84
2017-11-13T23:45:33.137Z,101491.45
2017-11-13T23:48:00.742Z,101493.39
2017-11-13T23:50:28.337Z,101490.92
2017-11-13T23:52:55.977Z,101498.27
2017-11-13T23:55:23.567Z,101499.86
2017-11-13T23:57:51.178Z,101501.39
